Tosca — 9V9459 — position and weather

sailwx.info

Track history (hours):
 
Tides and Currents Weather Stations Pressure Air Temp Water Temp Dewpoint Dewpoint Depression Visibility Wind Speed Wind Dir Waves Ship Positions

Tosca

Last reported at 2017-Dec-08 07:20 UTC. Time now 2017-Dec-14 04:17 UTC.
Position N 36°18' E 014°51'.

Length 200 m; draft 10 m.

Type: Ship. MMSI: 566087000.

Date/timePositionNaut miles runAvg speedWind from/ knotsBaromVisibWave heightAir tempDewpointWater temp
2017-Dec-08 07:20N 36°18' E 014°51'516.2
2017-Dec-08 07:00N 36°20' E 014°44'816.2
2017-Dec-08 06:30N 36°22' E 014°34'816.1
2017-Dec-08 06:00N 36°24' E 014°25'816.3
2017-Dec-08 05:29N 36°27' E 014°15'815.7
2017-Dec-08 05:00N 36°29' E 014°06'816.0
2017-Dec-08 04:30N 36°32' E 013°57'915.9
2017-Dec-08 03:56N 36°35' E 013°46'1316.0
2017-Dec-08 03:07N 36°39' E 013°31'1615.9
2017-Dec-08 02:06N 36°43' E 013°11'315.5
2017-Dec-08 01:53N 36°44' E 013°07'  
2017-Dec-03 23:48N 46°35' W 007°38'718.3
2017-Dec-03 23:24N 46°41' W 007°32'1918.3
2017-Dec-03 22:21N 46°58' W 007°19'718.6
2017-Dec-03 21:57N 47°05' W 007°14'918.2
2017-Dec-03 21:27N 47°13' W 007°08'1018.2
2017-Dec-03 20:53N 47°22' W 007°01'1319.2
2017-Dec-03 20:11N 47°34' W 006°52'4519.6
2017-Dec-03 17:52N 48°14' W 006°19'3917.9
2017-Dec-03 15:41N 48°48' W 005°50'416.8
2017-Dec-03 15:25N 48°51' W 005°46'1116.1
2017-Dec-03 14:45N 48°59' W 005°34'1716.3
2017-Dec-03 13:40N 49°07' W 005°10'414.2
2017-Dec-03 13:25N 49°09' W 005°06'1116.3
2017-Dec-03 12:44N 49°14' W 004°51'5718.7
2017-Dec-03 09:41N 49°45' W 003°37'318.4
2017-Dec-03 09:30N 49°46' W 003°32'918.0
2017-Dec-03 09:01N 49°51' W 003°20'917.2
2017-Dec-03 08:28N 49°55' W 003°07'816.4
2017-Dec-03 08:00N 49°58' W 002°57'815.7
2017-Dec-03 07:31N 50°01' W 002°45'815.0
2017-Dec-03 07:00N 50°03' W 002°34'814.4
2017-Dec-03 06:27N 50°05' W 002°22'714.2
2017-Dec-03 05:57N 50°07' W 002°11'614.3
2017-Dec-03 05:30N 50°08' W 002°02'715.0
2017-Dec-03 05:00N 50°10' W 001°50'816.0
2017-Dec-03 04:30N 50°12' W 001°38'917.1
2017-Dec-03 04:00N 50°14' W 001°25'918.2
2017-Dec-03 03:31N 50°16' W 001°11'1019.4
2017-Dec-03 03:00N 50°18' W 000°56'1119.6
2017-Dec-03 02:26N 50°22' W 000°40'819.5
2017-Dec-03 02:00N 50°25' W 000°28'1019.1
2017-Dec-03 01:30N 50°28' W 000°13'918.7
2017-Dec-03 01:00N 50°30' E 000°01'918.3
2017-Dec-03 00:30N 50°33' E 000°15'917.9
2017-Dec-03 00:00N 50°35' E 000°28'816.8
2017-Dec-02 23:30N 50°38' E 000°40'816.6
2017-Dec-02 23:00N 50°43' E 000°51'815.7
2017-Dec-02 22:30N 50°47' E 001°02'815.3
2017-Dec-02 21:59N 50°51' E 001°12'714.8
2017-Dec-02 21:30N 50°57' E 001°20'816.0
2017-Dec-02 21:01N 51°03' E 001°28'917.2
2017-Dec-02 20:30N 51°09' E 001°38'918.3
2017-Dec-02 20:01N 51°16' E 001°47'1019.2
2017-Dec-02 19:31N 51°24' E 001°55'1019.0
2017-Dec-02 19:01N 51°31' E 002°05'919.0
2017-Dec-02 18:30N 51°38' E 002°15'1118.7
2017-Dec-02 17:55N 51°47' E 002°27'1218.1
2017-Dec-02 17:14N 51°56' E 002°40'5416.4
2017-Dec-02 13:55N 52°40' E 003°33'715.6
2017-Dec-02 13:30N 52°45' E 003°39'815.6
2017-Dec-02 13:00N 52°51' E 003°47'815.9
2017-Dec-02 12:30N 52°56' E 003°56'816.6
2017-Dec-02 12:00N 53°02' E 004°07'917.2
2017-Dec-02 11:30N 53°07' E 004°19'916.8
2017-Dec-02 10:58N 53°14' E 004°27'917.8
2017-Dec-02 10:28N 53°23' E 004°32'816.7
2017-Dec-02 10:00N 53°29' E 004°40'917.7
2017-Dec-02 09:30N 53°32' E 004°53'917.4
2017-Dec-02 09:00N 53°36' E 005°07'816.9
2017-Dec-02 08:30N 53°39' E 005°20'816.3
2017-Dec-02 08:00N 53°41' E 005°34'5815.5
2017-Dec-02 04:15N 53°56' E 007°08'616.7
2017-Dec-02 03:54N 53°57' E 007°18'716.8
2017-Dec-02 03:30N 53°58' E 007°29'714.4
2017-Dec-02 03:01N 53°57' E 007°41'714.1
2017-Dec-02 02:30N 53°52' E 007°50'714.0
2017-Dec-02 02:00N 53°51' E 008°02'816.7
2017-Dec-02 01:30N 53°45' E 008°12'917.3
2017-Dec-02 01:00N 53°40' E 008°23'713.9
2017-Dec-02 00:30N 53°35' E 008°32'1 2.0
2017-Dec-02 00:00N 53°34' E 008°33'0 0.8
2017-Dec-01 23:29N 53°35' E 008°33'0 0.0
2017-Dec-01 22:59N 53°35' E 008°33'0 0.0
2017-Dec-01 22:29N 53°35' E 008°33'0 0.0
2017-Dec-01 22:00N 53°35' E 008°33'0 0.0
2017-Dec-01 21:29N 53°35' E 008°33'0 0.0
2017-Dec-01 20:59N 53°35' E 008°33'0 0.0
2017-Dec-01 20:30N 53°35' E 008°33'0 0.0
2017-Dec-01 19:59N 53°35' E 008°33'0 0.0
2017-Dec-01 19:30N 53°35' E 008°33'0 0.0
2017-Dec-01 18:59N 53°35' E 008°33'0 0.0
2017-Dec-01 18:29N 53°35' E 008°33'0 0.0
2017-Dec-01 18:00N 53°35' E 008°33'0 0.0
2017-Dec-01 17:29N 53°35' E 008°33'0 0.0
2017-Dec-01 17:00N 53°35' E 008°33'0 0.0
2017-Dec-01 16:30N 53°35' E 008°33'0 0.0
2017-Dec-01 15:59N 53°35' E 008°33'0 0.0
2017-Dec-01 15:30N 53°35' E 008°33'0 0.0
2017-Dec-01 15:00N 53°35' E 008°33'0 0.0
2017-Dec-01 14:30N 53°35' E 008°33'0 0.0
2017-Dec-01 13:59N 53°35' E 008°33'0 0.0
2017-Dec-01 13:29N 53°35' E 008°33'0 0.0
2017-Dec-01 12:59N 53°35' E 008°33'0 0.0
2017-Dec-01 12:29N 53°35' E 008°33'0 0.0
2017-Dec-01 12:00N 53°35' E 008°33'0 0.0
2017-Dec-01 11:29N 53°35' E 008°33'0 0.0
2017-Dec-01 10:59N 53°35' E 008°33'0 0.0
2017-Dec-01 10:29N 53°35' E 008°33'0 0.0
2017-Dec-01 09:59N 53°35' E 008°33'0 0.0
2017-Dec-01 09:29N 53°35' E 008°33'0 0.0
2017-Dec-01 08:59N 53°35' E 008°33'0 0.0
2017-Dec-01 08:29N 53°35' E 008°33'0 0.0
2017-Dec-01 08:00N 53°35' E 008°33'0 0.0
2017-Dec-01 07:29N 53°35' E 008°33'0 0.0
2017-Dec-01 07:00N 53°35' E 008°33'0 0.0
2017-Dec-01 06:30N 53°35' E 008°33'0 0.0
2017-Dec-01 05:59N 53°35' E 008°33'0 0.0
2017-Dec-01 05:30N 53°35' E 008°33'0 0.0
2017-Dec-01 04:59N 53°35' E 008°33'0 0.0
2017-Dec-01 04:30N 53°35' E 008°33'0 0.0
2017-Dec-01 04:00N 53°35' E 008°33'0 0.0
2017-Dec-01 03:30N 53°35' E 008°33'0 0.0
2017-Dec-01 02:59N 53°35' E 008°33'0 0.0
2017-Dec-01 02:29N 53°35' E 008°33'0 0.0
2017-Dec-01 01:59N 53°35' E 008°33'0 0.0
2017-Dec-01 01:29N 53°35' E 008°33'0 0.0
2017-Dec-01 01:00N 53°35' E 008°33'0 0.0
2017-Dec-01 00:29N 53°35' E 008°33'0 0.0
2017-Nov-30 23:59N 53°35' E 008°33'0 0.0
2017-Nov-30 23:29N 53°35' E 008°33'0 0.0
2017-Nov-30 23:00N 53°35' E 008°33'0 0.0
2017-Nov-30 22:29N 53°35' E 008°33'0 0.0
2017-Nov-30 21:59N 53°35' E 008°33'0 0.0
2017-Nov-30 21:29N 53°35' E 008°33'0 0.0
2017-Nov-30 20:59N 53°35' E 008°33'0 0.0
2017-Nov-30 20:29N 53°35' E 008°33'0 0.0
2017-Nov-30 19:59N 53°35' E 008°33'0 0.0
2017-Nov-30 19:30N 53°35' E 008°33'0 0.0
2017-Nov-30 19:00N 53°35' E 008°33'0 0.0
2017-Nov-30 18:30N 53°35' E 008°33'0 0.0
2017-Nov-30 18:00N 53°35' E 008°33'0 0.0
2017-Nov-30 17:29N 53°35' E 008°33'0 0.0
2017-Nov-30 16:59N 53°35' E 008°33'0 0.0
2017-Nov-30 16:29N 53°35' E 008°33'0 0.0
2017-Nov-30 16:00N 53°35' E 008°33'0 0.0
2017-Nov-30 15:30N 53°35' E 008°33'0 0.0
2017-Nov-30 14:59N 53°35' E 008°33'0 0.0
2017-Nov-30 14:29N 53°35' E 008°33'0 0.0
2017-Nov-30 13:59N 53°35' E 008°33'0 0.0
2017-Nov-30 13:29N 53°35' E 008°33'0 0.0
2017-Nov-30 13:00N 53°35' E 008°33'0 0.0
2017-Nov-30 12:29N 53°35' E 008°33'0 0.0
2017-Nov-30 12:00N 53°35' E 008°33'0 0.0
2017-Nov-30 11:30N 53°35' E 008°33'0 0.0
2017-Nov-30 10:59N 53°35' E 008°33'0 0.0
2017-Nov-30 10:30N 53°35' E 008°33'0 0.0
2017-Nov-30 09:59N 53°35' E 008°33'0 0.0
2017-Nov-30 09:30N 53°35' E 008°33'0 0.0
2017-Nov-30 09:00N 53°35' E 008°33'0 0.0
2017-Nov-30 08:29N 53°35' E 008°33'0 0.0
2017-Nov-30 08:00N 53°35' E 008°33'0 0.0
2017-Nov-30 07:29N 53°35' E 008°33'0 0.8
2017-Nov-30 07:00N 53°34' E 008°33'1 1.0
2017-Nov-30 06:30N 53°34' E 008°32'611.6
2017-Nov-30 06:00N 53°39' E 008°25'917.9
2017-Nov-30 05:30N 53°44' E 008°14'918.4
2017-Nov-30 05:00N 53°51' E 008°02'814.3
2017-Nov-30 04:25N 53°52' E 007°49'512.0
2017-Nov-30 04:00N 53°54' E 007°40'610.8
2017-Nov-30 03:29N 53°55' E 007°31'611.5
2017-Nov-30 03:00N 53°54' E 007°22'6716.1
2017-Nov-29 22:50N 53°36' E 005°33'515.3
2017-Nov-29 22:31N 53°34' E 005°25'815.0
2017-Nov-29 22:00N 53°31' E 005°13'815.0
2017-Nov-29 21:30N 53°29' E 005°01'714.8
2017-Nov-29 21:00N 53°26' E 004°50'714.1
2017-Nov-29 20:30N 53°21' E 004°41'714.6
2017-Nov-29 20:00N 53°14' E 004°36'713.8
2017-Nov-29 19:30N 53°08' E 004°30'714.0
2017-Nov-29 19:00N 53°02' E 004°24'714.3
2017-Nov-29 18:30N 52°56' E 004°18'714.1
2017-Nov-29 18:00N 52°50' E 004°12'713.7
2017-Nov-29 17:31N 52°45' E 004°04'714.0
2017-Nov-29 17:01N 52°41' E 003°55'713.9
2017-Nov-29 16:30N 52°37' E 003°46'713.9
2017-Nov-29 16:01N 52°32' E 003°38'914.2
2017-Nov-29 15:22N 52°24' E 003°30'614.6
2017-Nov-29 15:00N 52°20' E 003°24'5315.9
2017-Nov-29 11:40N 51°40' E 002°27'318.4
2017-Nov-29 11:30N 51°38' E 002°24'918.3
2017-Nov-29 11:01N 51°31' E 002°15'917.9
2017-Nov-29 10:31N 51°23' E 002°07'917.7
2017-Nov-29 10:00N 51°15' E 002°04'918.3
2017-Nov-29 09:31N 51°10' E 001°52'918.6
2017-Nov-29 09:01N 51°04' E 001°40'1019.1
2017-Nov-29 08:31N 50°57' E 001°30'918.7
2017-Nov-29 08:00N 50°48' E 001°25'918.2
2017-Nov-29 07:29N 50°40' E 001°17'1218.5
2017-Nov-29 06:50N 50°32' E 001°03'618.4
2017-Nov-29 06:30N 50°29' E 000°55'1018.7
2017-Nov-29 05:57N 50°26' E 000°40'919.2
2017-Nov-29 05:29N 50°25' E 000°26'919.3
2017-Nov-29 05:01N 50°23' E 000°11'1019.4
2017-Nov-29 04:31N 50°21' W 000°03'1019.5
2017-Nov-29 04:01N 50°18' W 000°18'1019.8
2017-Nov-29 03:30N 50°15' W 000°33'1519.8
2017-Nov-29 02:44N 50°10' W 000°55'519.6
2017-Nov-29 02:30N 50°09' W 001°02'1019.6
2017-Nov-29 02:00N 50°06' W 001°17'1019.3
2017-Nov-29 01:30N 50°03' W 001°31'918.8
2017-Nov-29 01:00N 50°01' W 001°45'918.4
2017-Nov-29 00:30N 49°58' W 001°59'918.0
2017-Nov-29 00:00N 49°55' W 002°12'1017.5
2017-Nov-28 23:26N 49°53' W 002°27'1117.4
2017-Nov-28 22:49N 49°50' W 002°43'517.3
2017-Nov-28 22:31N 49°48' W 002°51'917.4
2017-Nov-28 22:00N 49°47' W 003°05'917.3
2017-Nov-28 21:30N 49°45' W 003°18'1117.3
2017-Nov-28 20:52N 49°42' W 003°34'917.3
2017-Nov-28 20:22N 49°40' W 003°47'  
Track history (hours):
 
Tides and Currents Weather Stations Pressure Air Temp Water Temp Dewpoint Dewpoint Depression Visibility Wind Speed Wind Dir Waves Ship Positions

Tosca

Last reported at 2017-Dec-08 07:20 UTC. Time now 2017-Dec-14 04:17 UTC.
Position N 36°18' E 014°51'.

Length 200 m; draft 10 m.

Type: Ship. MMSI: 566087000.

Date/timePositionNaut miles runAvg speedWind from/ knotsBaromVisibWave heightAir tempDewpointWater temp
2017-Dec-08 07:20N 36°18' E 014°51'516.2
2017-Dec-08 07:00N 36°20' E 014°44'816.2
2017-Dec-08 06:30N 36°22' E 014°34'816.1
2017-Dec-08 06:00N 36°24' E 014°25'816.3
2017-Dec-08 05:29N 36°27' E 014°15'815.7
2017-Dec-08 05:00N 36°29' E 014°06'816.0
2017-Dec-08 04:30N 36°32' E 013°57'915.9
2017-Dec-08 03:56N 36°35' E 013°46'1316.0
2017-Dec-08 03:07N 36°39' E 013°31'1615.9
2017-Dec-08 02:06N 36°43' E 013°11'315.5
2017-Dec-08 01:53N 36°44' E 013°07'  
2017-Dec-03 23:48N 46°35' W 007°38'718.3
2017-Dec-03 23:24N 46°41' W 007°32'1918.3
2017-Dec-03 22:21N 46°58' W 007°19'718.6
2017-Dec-03 21:57N 47°05' W 007°14'918.2
2017-Dec-03 21:27N 47°13' W 007°08'1018.2
2017-Dec-03 20:53N 47°22' W 007°01'1319.2
2017-Dec-03 20:11N 47°34' W 006°52'4519.6
2017-Dec-03 17:52N 48°14' W 006°19'3917.9
2017-Dec-03 15:41N 48°48' W 005°50'416.8
2017-Dec-03 15:25N 48°51' W 005°46'1116.1
2017-Dec-03 14:45N 48°59' W 005°34'1716.3
2017-Dec-03 13:40N 49°07' W 005°10'414.2
2017-Dec-03 13:25N 49°09' W 005°06'1116.3
2017-Dec-03 12:44N 49°14' W 004°51'5718.7
2017-Dec-03 09:41N 49°45' W 003°37'318.4
2017-Dec-03 09:30N 49°46' W 003°32'918.0
2017-Dec-03 09:01N 49°51' W 003°20'917.2
2017-Dec-03 08:28N 49°55' W 003°07'816.4
2017-Dec-03 08:00N 49°58' W 002°57'815.7
2017-Dec-03 07:31N 50°01' W 002°45'815.0
2017-Dec-03 07:00N 50°03' W 002°34'814.4
2017-Dec-03 06:27N 50°05' W 002°22'714.2
2017-Dec-03 05:57N 50°07' W 002°11'614.3
2017-Dec-03 05:30N 50°08' W 002°02'715.0
2017-Dec-03 05:00N 50°10' W 001°50'816.0
2017-Dec-03 04:30N 50°12' W 001°38'917.1
2017-Dec-03 04:00N 50°14' W 001°25'918.2
2017-Dec-03 03:31N 50°16' W 001°11'1019.4
2017-Dec-03 03:00N 50°18' W 000°56'1119.6
2017-Dec-03 02:26N 50°22' W 000°40'819.5
2017-Dec-03 02:00N 50°25' W 000°28'1019.1
2017-Dec-03 01:30N 50°28' W 000°13'918.7
2017-Dec-03 01:00N 50°30' E 000°01'918.3
2017-Dec-03 00:30N 50°33' E 000°15'917.9
2017-Dec-03 00:00N 50°35' E 000°28'816.8
2017-Dec-02 23:30N 50°38' E 000°40'816.6
2017-Dec-02 23:00N 50°43' E 000°51'815.7
2017-Dec-02 22:30N 50°47' E 001°02'815.3
2017-Dec-02 21:59N 50°51' E 001°12'714.8
2017-Dec-02 21:30N 50°57' E 001°20'816.0
2017-Dec-02 21:01N 51°03' E 001°28'917.2
2017-Dec-02 20:30N 51°09' E 001°38'918.3
2017-Dec-02 20:01N 51°16' E 001°47'1019.2
2017-Dec-02 19:31N 51°24' E 001°55'1019.0
2017-Dec-02 19:01N 51°31' E 002°05'919.0
2017-Dec-02 18:30N 51°38' E 002°15'1118.7
2017-Dec-02 17:55N 51°47' E 002°27'1218.1
2017-Dec-02 17:14N 51°56' E 002°40'5416.4
2017-Dec-02 13:55N 52°40' E 003°33'715.6
2017-Dec-02 13:30N 52°45' E 003°39'815.6
2017-Dec-02 13:00N 52°51' E 003°47'815.9
2017-Dec-02 12:30N 52°56' E 003°56'816.6
2017-Dec-02 12:00N 53°02' E 004°07'917.2
2017-Dec-02 11:30N 53°07' E 004°19'916.8
2017-Dec-02 10:58N 53°14' E 004°27'917.8
2017-Dec-02 10:28N 53°23' E 004°32'816.7
2017-Dec-02 10:00N 53°29' E 004°40'917.7
2017-Dec-02 09:30N 53°32' E 004°53'917.4
2017-Dec-02 09:00N 53°36' E 005°07'816.9
2017-Dec-02 08:30N 53°39' E 005°20'816.3
2017-Dec-02 08:00N 53°41' E 005°34'5815.5
2017-Dec-02 04:15N 53°56' E 007°08'616.7
2017-Dec-02 03:54N 53°57' E 007°18'716.8
2017-Dec-02 03:30N 53°58' E 007°29'714.4
2017-Dec-02 03:01N 53°57' E 007°41'714.1
2017-Dec-02 02:30N 53°52' E 007°50'714.0
2017-Dec-02 02:00N 53°51' E 008°02'816.7
2017-Dec-02 01:30N 53°45' E 008°12'917.3
2017-Dec-02 01:00N 53°40' E 008°23'713.9
2017-Dec-02 00:30N 53°35' E 008°32'1 2.0
2017-Dec-02 00:00N 53°34' E 008°33'0 0.8
2017-Dec-01 23:29N 53°35' E 008°33'0 0.0
2017-Dec-01 22:59N 53°35' E 008°33'0 0.0
2017-Dec-01 22:29N 53°35' E 008°33'0 0.0
2017-Dec-01 22:00N 53°35' E 008°33'0 0.0
2017-Dec-01 21:29N 53°35' E 008°33'0 0.0
2017-Dec-01 20:59N 53°35' E 008°33'0 0.0
2017-Dec-01 20:30N 53°35' E 008°33'0 0.0
2017-Dec-01 19:59N 53°35' E 008°33'0 0.0
2017-Dec-01 19:30N 53°35' E 008°33'0 0.0
2017-Dec-01 18:59N 53°35' E 008°33'0 0.0
2017-Dec-01 18:29N 53°35' E 008°33'0 0.0
2017-Dec-01 18:00N 53°35' E 008°33'0 0.0
2017-Dec-01 17:29N 53°35' E 008°33'0 0.0
2017-Dec-01 17:00N 53°35' E 008°33'0 0.0
2017-Dec-01 16:30N 53°35' E 008°33'0 0.0
2017-Dec-01 15:59N 53°35' E 008°33'0 0.0
2017-Dec-01 15:30N 53°35' E 008°33'0 0.0
2017-Dec-01 15:00N 53°35' E 008°33'0 0.0
2017-Dec-01 14:30N 53°35' E 008°33'0 0.0
2017-Dec-01 13:59N 53°35' E 008°33'0 0.0
2017-Dec-01 13:29N 53°35' E 008°33'0 0.0
2017-Dec-01 12:59N 53°35' E 008°33'0 0.0
2017-Dec-01 12:29N 53°35' E 008°33'0 0.0
2017-Dec-01 12:00N 53°35' E 008°33'0 0.0
2017-Dec-01 11:29N 53°35' E 008°33'0 0.0
2017-Dec-01 10:59N 53°35' E 008°33'0 0.0
2017-Dec-01 10:29N 53°35' E 008°33'0 0.0
2017-Dec-01 09:59N 53°35' E 008°33'0 0.0
2017-Dec-01 09:29N 53°35' E 008°33'0 0.0
2017-Dec-01 08:59N 53°35' E 008°33'0 0.0
2017-Dec-01 08:29N 53°35' E 008°33'0 0.0
2017-Dec-01 08:00N 53°35' E 008°33'0 0.0
2017-Dec-01 07:29N 53°35' E 008°33'0 0.0
2017-Dec-01 07:00N 53°35' E 008°33'0 0.0
2017-Dec-01 06:30N 53°35' E 008°33'0 0.0
2017-Dec-01 05:59N 53°35' E 008°33'0 0.0
2017-Dec-01 05:30N 53°35' E 008°33'0 0.0
2017-Dec-01 04:59N 53°35' E 008°33'0 0.0
2017-Dec-01 04:30N 53°35' E 008°33'0 0.0
2017-Dec-01 04:00N 53°35' E 008°33'0 0.0
2017-Dec-01 03:30N 53°35' E 008°33'0 0.0
2017-Dec-01 02:59N 53°35' E 008°33'0 0.0
2017-Dec-01 02:29N 53°35' E 008°33'0 0.0
2017-Dec-01 01:59N 53°35' E 008°33'0 0.0
2017-Dec-01 01:29N 53°35' E 008°33'0 0.0
2017-Dec-01 01:00N 53°35' E 008°33'0 0.0
2017-Dec-01 00:29N 53°35' E 008°33'0 0.0
2017-Nov-30 23:59N 53°35' E 008°33'0 0.0
2017-Nov-30 23:29N 53°35' E 008°33'0 0.0
2017-Nov-30 23:00N 53°35' E 008°33'0 0.0
2017-Nov-30 22:29N 53°35' E 008°33'0 0.0
2017-Nov-30 21:59N 53°35' E 008°33'0 0.0
2017-Nov-30 21:29N 53°35' E 008°33'0 0.0
2017-Nov-30 20:59N 53°35' E 008°33'0 0.0
2017-Nov-30 20:29N 53°35' E 008°33'0 0.0
2017-Nov-30 19:59N 53°35' E 008°33'0 0.0
2017-Nov-30 19:30N 53°35' E 008°33'0 0.0
2017-Nov-30 19:00N 53°35' E 008°33'0 0.0
2017-Nov-30 18:30N 53°35' E 008°33'0 0.0
2017-Nov-30 18:00N 53°35' E 008°33'0 0.0
2017-Nov-30 17:29N 53°35' E 008°33'0 0.0
2017-Nov-30 16:59N 53°35' E 008°33'0 0.0
2017-Nov-30 16:29N 53°35' E 008°33'0 0.0
2017-Nov-30 16:00N 53°35' E 008°33'0 0.0
2017-Nov-30 15:30N 53°35' E 008°33'0 0.0
2017-Nov-30 14:59N 53°35' E 008°33'0 0.0
2017-Nov-30 14:29N 53°35' E 008°33'0 0.0
2017-Nov-30 13:59N 53°35' E 008°33'0 0.0
2017-Nov-30 13:29N 53°35' E 008°33'0 0.0
2017-Nov-30 13:00N 53°35' E 008°33'0 0.0
2017-Nov-30 12:29N 53°35' E 008°33'0 0.0
2017-Nov-30 12:00N 53°35' E 008°33'0 0.0
2017-Nov-30 11:30N 53°35' E 008°33'0 0.0
2017-Nov-30 10:59N 53°35' E 008°33'0 0.0
2017-Nov-30 10:30N 53°35' E 008°33'0 0.0
2017-Nov-30 09:59N 53°35' E 008°33'0 0.0
2017-Nov-30 09:30N 53°35' E 008°33'0 0.0
2017-Nov-30 09:00N 53°35' E 008°33'0 0.0
2017-Nov-30 08:29N 53°35' E 008°33'0 0.0
2017-Nov-30 08:00N 53°35' E 008°33'0 0.0
2017-Nov-30 07:29N 53°35' E 008°33'0 0.8
2017-Nov-30 07:00N 53°34' E 008°33'1 1.0
2017-Nov-30 06:30N 53°34' E 008°32'611.6
2017-Nov-30 06:00N 53°39' E 008°25'917.9
2017-Nov-30 05:30N 53°44' E 008°14'918.4
2017-Nov-30 05:00N 53°51' E 008°02'814.3
2017-Nov-30 04:25N 53°52' E 007°49'512.0
2017-Nov-30 04:00N 53°54' E 007°40'610.8
2017-Nov-30 03:29N 53°55' E 007°31'611.5
2017-Nov-30 03:00N 53°54' E 007°22'6716.1
2017-Nov-29 22:50N 53°36' E 005°33'515.3
2017-Nov-29 22:31N 53°34' E 005°25'815.0
2017-Nov-29 22:00N 53°31' E 005°13'815.0
2017-Nov-29 21:30N 53°29' E 005°01'714.8
2017-Nov-29 21:00N 53°26' E 004°50'714.1
2017-Nov-29 20:30N 53°21' E 004°41'714.6
2017-Nov-29 20:00N 53°14' E 004°36'713.8
2017-Nov-29 19:30N 53°08' E 004°30'714.0
2017-Nov-29 19:00N 53°02' E 004°24'714.3
2017-Nov-29 18:30N 52°56' E 004°18'714.1
2017-Nov-29 18:00N 52°50' E 004°12'713.7
2017-Nov-29 17:31N 52°45' E 004°04'714.0
2017-Nov-29 17:01N 52°41' E 003°55'713.9
2017-Nov-29 16:30N 52°37' E 003°46'713.9
2017-Nov-29 16:01N 52°32' E 003°38'914.2
2017-Nov-29 15:22N 52°24' E 003°30'614.6
2017-Nov-29 15:00N 52°20' E 003°24'5315.9
2017-Nov-29 11:40N 51°40' E 002°27'318.4
2017-Nov-29 11:30N 51°38' E 002°24'918.3
2017-Nov-29 11:01N 51°31' E 002°15'917.9
2017-Nov-29 10:31N 51°23' E 002°07'917.7
2017-Nov-29 10:00N 51°15' E 002°04'918.3
2017-Nov-29 09:31N 51°10' E 001°52'918.6
2017-Nov-29 09:01N 51°04' E 001°40'1019.1
2017-Nov-29 08:31N 50°57' E 001°30'918.7
2017-Nov-29 08:00N 50°48' E 001°25'918.2
2017-Nov-29 07:29N 50°40' E 001°17'1218.5
2017-Nov-29 06:50N 50°32' E 001°03'618.4
2017-Nov-29 06:30N 50°29' E 000°55'1018.7
2017-Nov-29 05:57N 50°26' E 000°40'919.2
2017-Nov-29 05:29N 50°25' E 000°26'919.3
2017-Nov-29 05:01N 50°23' E 000°11'1019.4
2017-Nov-29 04:31N 50°21' W 000°03'1019.5
2017-Nov-29 04:01N 50°18' W 000°18'1019.8
2017-Nov-29 03:30N 50°15' W 000°33'1519.8
2017-Nov-29 02:44N 50°10' W 000°55'519.6
2017-Nov-29 02:30N 50°09' W 001°02'1019.6
2017-Nov-29 02:00N 50°06' W 001°17'1019.3
2017-Nov-29 01:30N 50°03' W 001°31'918.8
2017-Nov-29 01:00N 50°01' W 001°45'918.4
2017-Nov-29 00:30N 49°58' W 001°59'918.0
2017-Nov-29 00:00N 49°55' W 002°12'1017.5
2017-Nov-28 23:26N 49°53' W 002°27'1117.4
2017-Nov-28 22:49N 49°50' W 002°43'517.3
2017-Nov-28 22:31N 49°48' W 002°51'917.4
2017-Nov-28 22:00N 49°47' W 003°05'917.3
2017-Nov-28 21:30N 49°45' W 003°18'1117.3
2017-Nov-28 20:52N 49°42' W 003°34'917.3
2017-Nov-28 20:22N 49°40' W 003°47'  

Dump ship's entire track history